Harris, New York
Current Conditions -  °F | °C
As of 8:15 PM on Friday 28 Nov 2014 (Local Time) from KMSV Reporting Station
Clear Clear  
Wind Chill:   Ceiling: Unl
Heat Index: 16°   Visibility: 10mi
Dew Point: 10°   Wind: 6mph
Humidity: 79%   Direction: 290°WNW
Pressure: 30.17"   Gusts: NA
Location:  41.71°N, 74.73°W
Report Text: KMSV 290115Z AUTO 29005KT 10SM CLR M09/M12 A3017 RMK AO1
Loading
Personal Weather Stations






























Interactive Weather Map New forecast layout! Learn more

10-Day Weather Forecast

Advertisements
Track Severe Weather on mobile